Time,TemperatureF,DewpointF,PressureIn,WindDirection,WindDirectionDegrees,WindSpeedMPH,WindSpeedGustMPH,Humidity,HourlyPrecipIn,Conditions,Clouds,dailyrainin,SolarRadiationWatts/m^2,SoftwareType,DateUTC
2013-04-07 00:03:00,50.0,32.0,29.82,SSW,212,4.0,38.0,49,0.00,,,0.00,0.000000,,2013-04-07 04:03:00,
2013-04-07 00:14:00,50.0,32.0,29.82,SSW,212,4.0,38.0,49,0.00,,,0.00,0.000000,,2013-04-07 04:14:00,
2013-04-07 00:43:00,48.0,33.0,29.83,SE,138,6.0,35.0,55,0.00,,,0.00,0.000000,,2013-04-07 04:43:00,
2013-04-07 00:53:00,48.0,33.0,29.83,SE,138,6.0,35.0,55,0.00,,,0.00,0.000000,,2013-04-07 04:53:00,
2013-04-07 01:02:00,48.0,33.0,29.83,SE,138,6.0,35.0,55,0.00,,,0.00,0.000000,,2013-04-07 05:02:00,
2013-04-07 01:12:00,48.0,33.0,29.83,SE,138,6.0,35.0,55,0.00,,,0.00,0.000000,,2013-04-07 05:12:00,
2013-04-07 01:43:00,49.0,33.0,29.83,SE,146,5.0,60.0,54,0.00,,,0.00,0.000000,,2013-04-07 05:43:00,
2013-04-07 01:53:00,49.0,33.0,29.83,SE,146,5.0,60.0,54,0.00,,,0.00,0.000000,,2013-04-07 05:53:00,
2013-04-07 02:02:00,49.0,33.0,29.83,SE,146,5.0,60.0,54,0.00,,,0.00,0.000000,,2013-04-07 06:02:00,
2013-04-07 02:12:00,49.0,33.0,29.83,SE,146,5.0,60.0,54,0.00,,,0.00,0.000000,,2013-04-07 06:12:00,
2013-04-07 02:43:00,47.0,31.0,29.81,WNW,284,4.0,10.0,53,0.00,,,0.00,0.000000,,2013-04-07 06:43:00,
2013-04-07 02:53:00,47.0,31.0,29.81,WNW,284,4.0,10.0,53,0.00,,,0.00,0.000000,,2013-04-07 06:53:00,
2013-04-07 03:02:00,47.0,31.0,29.81,WNW,284,4.0,10.0,53,0.00,,,0.00,0.000000,,2013-04-07 07:02:00,
2013-04-07 03:12:00,47.0,31.0,29.81,WNW,284,4.0,10.0,53,0.00,,,0.00,0.000000,,2013-04-07 07:12:00,
2013-04-07 03:42:00,43.0,29.0,29.80,SE,140,3.0,11.0,58,0.00,,,0.00,0.000000,,2013-04-07 07:42:00,
2013-04-07 03:52:00,43.0,29.0,29.80,SE,140,3.0,11.0,58,0.00,,,0.00,0.000000,,2013-04-07 07:52:00,
2013-04-07 04:02:00,43.0,29.0,29.80,SE,140,3.0,11.0,58,0.00,,,0.00,0.000000,,2013-04-07 08:02:00,
2013-04-07 04:12:00,43.0,29.0,29.80,SE,140,3.0,11.0,58,0.00,,,0.00,0.000000,,2013-04-07 08:12:00,
2013-04-07 04:43:00,43.0,32.0,29.80,NNW,329,2.0,8.0,64,0.00,,,0.00,0.000000,,2013-04-07 08:43:00,
2013-04-07 04:53:00,43.0,32.0,29.80,NNW,329,2.0,8.0,64,0.00,,,0.00,0.000000,,2013-04-07 08:53:00,
2013-04-07 05:02:00,43.0,32.0,29.80,NNW,329,2.0,8.0,64,0.00,,,0.00,0.000000,,2013-04-07 09:02:00,
2013-04-07 05:12:00,43.0,32.0,29.80,NNW,329,2.0,8.0,64,0.00,,,0.00,0.000000,,2013-04-07 09:12:00,
2013-04-07 05:54:00,39.0,30.0,29.81,SSW,199,2.0,51.0,70,0.00,,,0.00,0.000000,,2013-04-07 09:54:00,
2013-04-07 06:04:00,39.0,30.0,29.81,SSW,199,2.0,51.0,70,0.00,,,0.00,0.000000,,2013-04-07 10:04:00,
2013-04-07 06:14:00,39.0,30.0,29.81,SSW,199,2.0,51.0,70,0.00,,,0.00,0.000000,,2013-04-07 10:14:00,
2013-04-07 06:43:00,37.0,33.0,29.82,NNE,27,1.0,41.0,86,0.00,,,0.00,0.000000,,2013-04-07 10:43:00,
2013-04-07 06:54:00,37.0,33.0,29.82,NNE,27,1.0,41.0,86,0.00,,,0.00,0.000000,,2013-04-07 10:54:00,
2013-04-07 07:03:00,37.0,33.0,29.82,NNE,27,1.0,41.0,86,0.00,,,0.00,0.000000,,2013-04-07 11:03:00,
2013-04-07 07:12:00,37.0,33.0,29.82,NNE,27,1.0,41.0,86,0.00,,,0.00,0.000000,,2013-04-07 11:12:00,
2013-04-07 07:43:00,34.0,32.0,29.83,NE,35,1.0,8.0,92,0.00,,,0.00,3.000000,,2013-04-07 11:43:00,
2013-04-07 07:53:00,34.0,32.0,29.83,NE,35,1.0,8.0,92,0.00,,,0.00,3.000000,,2013-04-07 11:53:00,
2013-04-07 08:03:00,34.0,32.0,29.83,NE,35,1.0,8.0,92,0.00,,,0.00,3.000000,,2013-04-07 12:03:00,
2013-04-07 08:12:00,34.0,32.0,29.83,NE,35,1.0,8.0,92,0.00,,,0.00,3.000000,,2013-04-07 12:12:00,
2013-04-07 08:43:00,44.0,34.0,29.84,East,91,3.0,8.0,69,0.00,,,0.00,68.000000,,2013-04-07 12:43:00,
2013-04-07 08:54:00,44.0,34.0,29.84,East,91,3.0,8.0,69,0.00,,,0.00,68.000000,,2013-04-07 12:54:00,
2013-04-07 09:05:00,44.0,34.0,29.84,East,91,3.0,8.0,69,0.00,,,0.00,68.000000,,2013-04-07 13:05:00,
2013-04-07 09:13:00,44.0,34.0,29.84,East,91,3.0,8.0,69,0.00,,,0.00,68.000000,,2013-04-07 13:13:00,
2013-04-07 09:43:00,50.0,34.0,29.85,South,182,4.0,41.0,53,0.00,,,0.00,313.000000,,2013-04-07 13:43:00,
2013-04-07 09:53:00,50.0,34.0,29.85,South,182,4.0,41.0,53,0.00,,,0.00,313.000000,,2013-04-07 13:53:00,
2013-04-07 10:02:00,50.0,34.0,29.85,South,182,4.0,41.0,53,0.00,,,0.00,313.000000,,2013-04-07 14:02:00,
2013-04-07 10:13:00,50.0,34.0,29.85,South,182,4.0,41.0,53,0.00,,,0.00,313.000000,,2013-04-07 14:13:00,
2013-04-07 10:44:00,57.0,35.0,29.84,South,181,5.0,10.0,43,0.00,,,0.00,517.000000,,2013-04-07 14:44:00,
2013-04-07 10:55:00,57.0,35.0,29.84,South,181,5.0,10.0,43,0.00,,,0.00,517.000000,,2013-04-07 14:55:00,
2013-04-07 11:03:00,57.0,35.0,29.84,South,181,5.0,10.0,43,0.00,,,0.00,517.000000,,2013-04-07 15:03:00,
2013-04-07 11:13:00,57.0,35.0,29.84,South,181,5.0,10.0,43,0.00,,,0.00,517.000000,,2013-04-07 15:13:00,
2013-04-07 11:45:00,62.0,36.0,29.84,SSW,213,6.0,12.0,38,0.00,,,0.00,691.000000,,2013-04-07 15:45:00,
2013-04-07 11:55:00,62.0,36.0,29.84,SSW,213,6.0,12.0,38,0.00,,,0.00,691.000000,,2013-04-07 15:55:00,
2013-04-07 12:05:00,62.0,36.0,29.84,SSW,213,6.0,12.0,38,0.00,,,0.00,691.000000,,2013-04-07 16:05:00,
2013-04-07 12:14:00,62.0,36.0,29.84,SSW,213,6.0,12.0,38,0.00,,,0.00,691.000000,,2013-04-07 16:14:00,
2013-04-07 12:44:00,66.0,34.0,29.82,SSW,210,7.0,14.0,30,0.00,,,0.00,814.000000,,2013-04-07 16:44:00,
2013-04-07 12:54:00,66.0,34.0,29.82,SSW,210,7.0,14.0,30,0.00,,,0.00,814.000000,,2013-04-07 16:54:00,
2013-04-07 13:05:00,66.0,34.0,29.82,SSW,210,7.0,14.0,30,0.00,,,0.00,814.000000,,2013-04-07 17:05:00,
2013-04-07 13:13:00,66.0,34.0,29.82,SSW,210,7.0,14.0,30,0.00,,,0.00,814.000000,,2013-04-07 17:13:00,
2013-04-07 13:44:00,69.0,35.0,29.79,SW,218,8.0,16.0,29,0.00,,,0.00,551.000000,,2013-04-07 17:44:00,
2013-04-07 13:54:00,69.0,35.0,29.79,SW,218,8.0,16.0,29,0.00,,,0.00,551.000000,,2013-04-07 17:54:00,
2013-04-07 14:03:00,69.0,35.0,29.79,SW,218,8.0,16.0,29,0.00,,,0.00,551.000000,,2013-04-07 18:03:00,
2013-04-07 14:14:00,69.0,35.0,29.79,SW,218,8.0,16.0,29,0.00,,,0.00,551.000000,,2013-04-07 18:14:00,
2013-04-07 14:44:00,70.0,36.0,29.75,SW,221,10.0,23.0,29,0.00,,,0.00,620.000000,,2013-04-07 18:44:00,
2013-04-07 14:53:00,70.0,36.0,29.75,SW,221,10.0,23.0,29,0.00,,,0.00,620.000000,,2013-04-07 18:53:00,
2013-04-07 15:03:00,70.0,36.0,29.75,SW,221,10.0,23.0,29,0.00,,,0.00,620.000000,,2013-04-07 19:03:00,
2013-04-07 15:13:00,70.0,36.0,29.75,SW,221,10.0,23.0,29,0.00,,,0.00,620.000000,,2013-04-07 19:13:00,
2013-04-07 15:43:00,74.0,39.0,29.72,SSW,212,9.0,18.0,28,0.00,,,0.00,820.000000,,2013-04-07 19:43:00,
2013-04-07 15:55:00,74.0,39.0,29.72,SSW,212,9.0,18.0,28,0.00,,,0.00,820.000000,,2013-04-07 19:55:00,
2013-04-07 16:03:00,74.0,39.0,29.72,SSW,212,9.0,18.0,28,0.00,,,0.00,820.000000,,2013-04-07 20:03:00,
2013-04-07 16:13:00,74.0,39.0,29.72,SSW,212,9.0,18.0,28,0.00,,,0.00,820.000000,,2013-04-07 20:13:00,
2013-04-07 16:44:00,74.0,37.0,29.69,SW,227,7.0,22.0,26,0.00,,,0.00,659.000000,,2013-04-07 20:44:00,
2013-04-07 16:55:00,74.0,37.0,29.69,SW,227,7.0,22.0,26,0.00,,,0.00,659.000000,,2013-04-07 20:55:00,
2013-04-07 17:04:00,74.0,37.0,29.69,SW,227,7.0,22.0,26,0.00,,,0.00,659.000000,,2013-04-07 21:04:00,
2013-04-07 17:14:00,74.0,37.0,29.69,SW,227,7.0,22.0,26,0.00,,,0.00,659.000000,,2013-04-07 21:14:00,
2013-04-07 17:45:00,73.0,36.0,29.69,WSW,240,7.0,23.0,26,0.00,,,0.00,441.000000,,2013-04-07 21:45:00,
2013-04-07 17:55:00,73.0,36.0,29.69,WSW,240,7.0,23.0,26,0.00,,,0.00,441.000000,,2013-04-07 21:55:00,
2013-04-07 18:05:00,73.0,36.0,29.69,WSW,240,7.0,23.0,26,0.00,,,0.00,441.000000,,2013-04-07 22:05:00,
2013-04-07 18:15:00,73.0,36.0,29.69,WSW,240,7.0,23.0,26,0.00,,,0.00,441.000000,,2013-04-07 22:15:00,
2013-04-07 18:44:00,70.0,35.0,29.69,SW,223,8.0,20.0,28,0.00,,,0.00,264.000000,,2013-04-07 22:44:00,
2013-04-07 18:54:00,70.0,35.0,29.69,SW,223,8.0,20.0,28,0.00,,,0.00,264.000000,,2013-04-07 22:54:00,
2013-04-07 19:04:00,70.0,35.0,29.69,SW,223,8.0,20.0,28,0.00,,,0.00,264.000000,,2013-04-07 23:04:00,
2013-04-07 19:13:00,70.0,35.0,29.69,SW,223,8.0,20.0,28,0.00,,,0.00,264.000000,,2013-04-07 23:13:00,
2013-04-07 19:43:00,68.0,35.0,29.69,SW,226,6.0,18.0,29,0.00,,,0.00,124.000000,,2013-04-07 23:43:00,
2013-04-07 19:53:00,68.0,35.0,29.69,SW,226,6.0,18.0,29,0.00,,,0.00,124.000000,,2013-04-07 23:53:00,
2013-04-07 20:03:00,68.0,35.0,29.69,SW,226,6.0,18.0,29,0.00,,,0.00,124.000000,,2013-04-08 00:03:00,
2013-04-07 20:12:00,68.0,35.0,29.69,SW,226,6.0,18.0,29,0.00,,,0.00,124.000000,,2013-04-08 00:12:00,
2013-04-07 20:43:00,59.0,38.0,29.70,WNW,283,1.0,9.0,45,0.00,,,0.00,15.000000,,2013-04-08 00:43:00,
2013-04-07 20:53:00,59.0,38.0,29.70,WNW,283,1.0,9.0,45,0.00,,,0.00,15.000000,,2013-04-08 00:53:00,
2013-04-07 21:03:00,59.0,38.0,29.70,WNW,283,1.0,9.0,45,0.00,,,0.00,15.000000,,2013-04-08 01:03:00,
2013-04-07 21:13:00,59.0,38.0,29.70,WNW,283,1.0,9.0,45,0.00,,,0.00,15.000000,,2013-04-08 01:13:00,
2013-04-07 21:45:00,56.0,38.0,29.70,SSW,205,3.0,8.0,50,0.00,,,0.00,0.000000,,2013-04-08 01:45:00,
2013-04-07 21:55:00,56.0,38.0,29.70,SSW,205,3.0,8.0,50,0.00,,,0.00,0.000000,,2013-04-08 01:55:00,
2013-04-07 22:03:00,56.0,38.0,29.70,SSW,205,3.0,8.0,50,0.00,,,0.00,0.000000,,2013-04-08 02:03:00,
2013-04-07 22:12:00,56.0,38.0,29.70,SSW,205,3.0,8.0,50,0.00,,,0.00,0.000000,,2013-04-08 02:12:00,
2013-04-07 22:49:00,56.0,39.0,29.71,NE,53,1.0,5.0,53,0.00,,,0.00,0.000000,,2013-04-08 02:49:00,
2013-04-07 22:55:00,56.0,39.0,29.71,NE,53,1.0,5.0,53,0.00,,,0.00,0.000000,,2013-04-08 02:55:00,
2013-04-07 23:08:00,56.0,39.0,29.71,NE,53,1.0,5.0,53,0.00,,,0.00,0.000000,,2013-04-08 03:08:00,
2013-04-07 23:15:00,56.0,39.0,29.71,NE,53,1.0,5.0,53,0.00,,,0.00,0.000000,,2013-04-08 03:15:00,
2013-04-07 23:58:00,53.0,38.0,29.70,SW,217,2.0,5.0,56,0.00,,,0.00,0.000000,,2013-04-08 03:58:00,